sensor_id;sensor_type;location;lat;lon;timestamp;pressure;altitude;pressure_sealevel;temperature;humidity
79037;BME280;68434;59.896;30.474;2023-05-01T00:00:51;101258.69;;;6.99;60.97
79037;BME280;68434;59.896;30.474;2023-05-01T00:03:20;101257.47;;;7.03;60.47
79037;BME280;68434;59.896;30.474;2023-05-01T00:05:48;101253.91;;;7.03;60.72
79037;BME280;68434;59.896;30.474;2023-05-01T00:08:15;101248.78;;;6.89;60.80
79037;BME280;68434;59.896;30.474;2023-05-01T00:10:43;101244.47;;;6.75;61.07
79037;BME280;68434;59.896;30.474;2023-05-01T00:13:11;101240.75;;;6.65;60.79
79037;BME280;68434;59.896;30.474;2023-05-01T00:15:40;101237.69;;;6.59;61.01
79037;BME280;68434;59.896;30.474;2023-05-01T00:18:08;101236.84;;;6.58;61.65
79037;BME280;68434;59.896;30.474;2023-05-01T00:20:37;101231.28;;;6.49;61.29
79037;BME280;68434;59.896;30.474;2023-05-01T00:23:04;101227.03;;;6.46;61.71
79037;BME280;68434;59.896;30.474;2023-05-01T00:25:33;101226.16;;;6.46;61.60
79037;BME280;68434;59.896;30.474;2023-05-01T00:28:01;101230.19;;;6.40;61.85
79037;BME280;68434;59.896;30.474;2023-05-01T00:30:28;101229.84;;;6.45;61.20
79037;BME280;68434;59.896;30.474;2023-05-01T00:32:56;101228.97;;;6.44;61.35
79037;BME280;68434;59.896;30.474;2023-05-01T00:35:24;101224.81;;;6.40;61.76
79037;BME280;68434;59.896;30.474;2023-05-01T00:37:53;101229.66;;;6.35;62.23
79037;BME280;68434;59.896;30.474;2023-05-01T00:40:21;101219.56;;;6.39;62.12
79037;BME280;68434;59.896;30.474;2023-05-01T00:42:48;101217.16;;;6.47;61.83
79037;BME280;68434;59.896;30.474;2023-05-01T00:45:16;101222.88;;;6.53;61.53
79037;BME280;68434;59.896;30.474;2023-05-01T00:47:44;101218.78;;;6.60;61.30
79037;BME280;68434;59.896;30.474;2023-05-01T00:50:12;101214.09;;;6.62;61.28
79037;BME280;68434;59.896;30.474;2023-05-01T00:52:40;101212.16;;;6.64;61.67
79037;BME280;68434;59.896;30.474;2023-05-01T00:55:10;101211.31;;;6.64;61.83
79037;BME280;68434;59.896;30.474;2023-05-01T00:57:38;101205.69;;;6.67;61.33
79037;BME280;68434;59.896;30.474;2023-05-01T01:00:06;101196.03;;;6.64;61.77
79037;BME280;68434;59.896;30.474;2023-05-01T01:02:37;101197.75;;;6.54;62.13
79037;BME280;68434;59.896;30.474;2023-05-01T01:05:06;101196.13;;;6.52;62.13
79037;BME280;68434;59.896;30.474;2023-05-01T01:07:40;101198.81;;;6.52;62.35
79037;BME280;68434;59.896;30.474;2023-05-01T01:10:18;101196.00;;;6.53;62.43
79037;BME280;68434;59.896;30.474;2023-05-01T01:12:57;101200.66;;;6.51;62.86
79037;BME280;68434;59.896;30.474;2023-05-01T01:15:34;101205.00;;;6.41;62.94
79037;BME280;68434;59.896;30.474;2023-05-01T01:18:07;101200.75;;;6.39;63.41
79037;BME280;68434;59.896;30.474;2023-05-01T01:20:38;101191.56;;;6.30;63.19
79037;BME280;68434;59.896;30.474;2023-05-01T01:23:33;101202.59;;;6.15;64.71
79037;BME280;68434;59.896;30.474;2023-05-01T01:26:11;101200.56;;;6.18;63.89
79037;BME280;68434;59.896;30.474;2023-05-01T01:29:03;101198.94;;;6.16;64.23
79037;BME280;68434;59.896;30.474;2023-05-01T01:31:48;101201.03;;;6.12;64.48
79037;BME280;68434;59.896;30.474;2023-05-01T01:34:24;101202.38;;;6.18;64.45
79037;BME280;68434;59.896;30.474;2023-05-01T01:36:59;101202.03;;;6.22;64.49
79037;BME280;68434;59.896;30.474;2023-05-01T01:39:32;101194.47;;;6.27;64.61
79037;BME280;68434;59.896;30.474;2023-05-01T01:42:07;101196.81;;;6.32;64.65
79037;BME280;68434;59.896;30.474;2023-05-01T01:44:39;101190.81;;;6.28;64.75
79037;BME280;68434;59.896;30.474;2023-05-01T01:47:11;101194.38;;;6.29;65.21
79037;BME280;68434;59.896;30.474;2023-05-01T01:49:44;101204.06;;;6.19;65.16
79037;BME280;68434;59.896;30.474;2023-05-01T01:52:14;101202.13;;;6.21;65.10
79037;BME280;68434;59.896;30.474;2023-05-01T01:54:49;101198.56;;;6.09;65.95
79037;BME280;68434;59.896;30.474;2023-05-01T01:57:18;101202.44;;;6.05;66.05
79037;BME280;68434;59.896;30.474;2023-05-01T01:59:47;101199.16;;;6.13;65.79
79037;BME280;68434;59.896;30.474;2023-05-01T02:02:18;101198.09;;;6.15;66.05
79037;BME280;68434;59.896;30.474;2023-05-01T02:04:48;101207.47;;;6.10;66.09
79037;BME280;68434;59.896;30.474;2023-05-01T02:07:18;101210.72;;;6.02;66.37
79037;BME280;68434;59.896;30.474;2023-05-01T02:09:46;101208.84;;;5.92;66.79
79037;BME280;68434;59.896;30.474;2023-05-01T02:12:15;101205.19;;;5.93;66.77
79037;BME280;68434;59.896;30.474;2023-05-01T02:14:47;101199.25;;;6.00;66.39
79037;BME280;68434;59.896;30.474;2023-05-01T02:17:15;101200.31;;;5.98;66.87
79037;BME280;68434;59.896;30.474;2023-05-01T02:19:45;101204.88;;;6.08;66.12
79037;BME280;68434;59.896;30.474;2023-05-01T02:22:16;101203.53;;;6.03;66.94
79037;BME280;68434;59.896;30.474;2023-05-01T02:24:46;101200.31;;;5.98;67.33
79037;BME280;68434;59.896;30.474;2023-05-01T02:27:19;101197.16;;;6.04;67.27
79037;BME280;68434;59.896;30.474;2023-05-01T02:29:50;101199.50;;;6.08;67.00
79037;BME280;68434;59.896;30.474;2023-05-01T02:32:18;101197.47;;;6.12;67.16
79037;BME280;68434;59.896;30.474;2023-05-01T02:34:46;101197.94;;;6.06;67.63
79037;BME280;68434;59.896;30.474;2023-05-01T02:37:15;101198.69;;;6.08;67.36
79037;BME280;68434;59.896;30.474;2023-05-01T02:39:44;101201.47;;;6.06;67.24
79037;BME280;68434;59.896;30.474;2023-05-01T02:42:14;101198.78;;;6.06;67.50
79037;BME280;68434;59.896;30.474;2023-05-01T02:44:46;101201.59;;;6.05;67.44
79037;BME280;68434;59.896;30.474;2023-05-01T02:47:19;101196.00;;;6.08;67.13
79037;BME280;68434;59.896;30.474;2023-05-01T02:49:50;101199.28;;;6.11;67.14
79037;BME280;68434;59.896;30.474;2023-05-01T02:52:20;101200.97;;;6.01;67.77
79037;BME280;68434;59.896;30.474;2023-05-01T02:54:54;101202.44;;;6.05;66.97
79037;BME280;68434;59.896;30.474;2023-05-01T02:57:23;101204.88;;;6.08;67.23
79037;BME280;68434;59.896;30.474;2023-05-01T02:59:50;101204.75;;;5.99;67.87
79037;BME280;68434;59.896;30.474;2023-05-01T03:02:18;101207.41;;;5.99;67.65
79037;BME280;68434;59.896;30.474;2023-05-01T03:04:45;101200.09;;;6.01;67.42
79037;BME280;68434;59.896;30.474;2023-05-01T03:07:13;101198.16;;;6.03;67.87
79037;BME280;68434;59.896;30.474;2023-05-01T03:09:42;101203.69;;;6.12;67.46
79037;BME280;68434;59.896;30.474;2023-05-01T03:12:10;101203.06;;;6.09;67.27
79037;BME280;68434;59.896;30.474;2023-05-01T03:14:37;101202.59;;;6.15;67.26
79037;BME280;68434;59.896;30.474;2023-05-01T03:17:05;101206.28;;;6.25;66.87
79037;BME280;68434;59.896;30.474;2023-05-01T03:19:32;101205.84;;;6.31;66.88
79037;BME280;68434;59.896;30.474;2023-05-01T03:22:00;101202.69;;;6.37;66.84
79037;BME280;68434;59.896;30.474;2023-05-01T03:24:29;101200.50;;;6.42;66.56
79037;BME280;68434;59.896;30.474;2023-05-01T03:26:58;101209.44;;;6.53;66.25
79037;BME280;68434;59.896;30.474;2023-05-01T03:29:26;101198.84;;;6.63;66.02
79037;BME280;68434;59.896;30.474;2023-05-01T03:31:54;101203.59;;;6.59;66.23
79037;BME280;68434;59.896;30.474;2023-05-01T03:34:22;101201.88;;;6.58;66.51
79037;BME280;68434;59.896;30.474;2023-05-01T03:36:50;101206.56;;;6.67;66.61
79037;BME280;68434;59.896;30.474;2023-05-01T03:39:18;101197.75;;;6.65;66.87
79037;BME280;68434;59.896;30.474;2023-05-01T03:42:05;101193.75;;;6.71;66.24
79037;BME280;68434;59.896;30.474;2023-05-01T03:44:38;101201.94;;;6.69;66.55
79037;BME280;68434;59.896;30.474;2023-05-01T03:47:06;101194.34;;;6.63;66.56
79037;BME280;68434;59.896;30.474;2023-05-01T03:49:39;101197.63;;;6.67;66.81
79037;BME280;68434;59.896;30.474;2023-05-01T03:52:09;101205.69;;;6.67;66.95
79037;BME280;68434;59.896;30.474;2023-05-01T03:54:37;101200.44;;;6.65;66.75
79037;BME280;68434;59.896;30.474;2023-05-01T03:57:35;101203.00;;;6.67;67.73
79037;BME280;68434;59.896;30.474;2023-05-01T04:00:04;101203.13;;;6.54;67.61
79037;BME280;68434;59.896;30.474;2023-05-01T04:02:42;101202.47;;;6.51;68.44
79037;BME280;68434;59.896;30.474;2023-05-01T04:05:13;101202.97;;;6.45;69.12
79037;BME280;68434;59.896;30.474;2023-05-01T04:07:47;101201.50;;;6.41;69.39
79037;BME280;68434;59.896;30.474;2023-05-01T04:10:14;101190.63;;;6.42;69.54
79037;BME280;68434;59.896;30.474;2023-05-01T04:12:51;101195.00;;;6.43;69.95
79037;BME280;68434;59.896;30.474;2023-05-01T04:15:19;101197.06;;;6.40;69.95
79037;BME280;68434;59.896;30.474;2023-05-01T04:17:48;101200.91;;;6.48;69.68
79037;BME280;68434;59.896;30.474;2023-05-01T04:20:16;101195.91;;;6.66;69.26
79037;BME280;68434;59.896;30.474;2023-05-01T04:22:44;101204.38;;;6.72;68.67
79037;BME280;68434;59.896;30.474;2023-05-01T04:25:12;101208.03;;;6.71;69.08
79037;BME280;68434;59.896;30.474;2023-05-01T04:27:40;101204.25;;;6.74;69.25
79037;BME280;68434;59.896;30.474;2023-05-01T04:30:10;101212.69;;;6.80;69.50
79037;BME280;68434;59.896;30.474;2023-05-01T04:32:37;101212.81;;;6.79;70.10
79037;BME280;68434;59.896;30.474;2023-05-01T04:35:06;101207.31;;;6.80;69.99
79037;BME280;68434;59.896;30.474;2023-05-01T04:37:58;101210.66;;;6.95;69.01
79037;BME280;68434;59.896;30.474;2023-05-01T04:40:26;101204.53;;;7.04;69.20
79037;BME280;68434;59.896;30.474;2023-05-01T04:42:54;101206.13;;;7.17;68.14
79037;BME280;68434;59.896;30.474;2023-05-01T04:45:23;101210.88;;;8.01;66.17
79037;BME280;68434;59.896;30.474;2023-05-01T04:47:50;101211.03;;;8.51;63.15
79037;BME280;68434;59.896;30.474;2023-05-01T04:50:19;101209.06;;;8.74;61.57
79037;BME280;68434;59.896;30.474;2023-05-01T04:52:47;101210.34;;;8.49;61.78
79037;BME280;68434;59.896;30.474;2023-05-01T04:55:15;101206.81;;;8.38;61.83
79037;BME280;68434;59.896;30.474;2023-05-01T04:57:58;101211.13;;;8.61;60.92
79037;BME280;68434;59.896;30.474;2023-05-01T05:00:29;101216.53;;;8.40;60.90
79037;BME280;68434;59.896;30.474;2023-05-01T05:02:57;101219.91;;;8.42;61.80
79037;BME280;68434;59.896;30.474;2023-05-01T05:05:25;101221.69;;;8.32;59.59
79037;BME280;68434;59.896;30.474;2023-05-01T05:07:53;101215.25;;;8.24;60.12
79037;BME280;68434;59.896;30.474;2023-05-01T05:10:30;101220.63;;;8.13;60.57
79037;BME280;68434;59.896;30.474;2023-05-01T05:13:20;101210.50;;;7.94;61.01
79037;BME280;68434;59.896;30.474;2023-05-01T05:15:56;101218.66;;;7.83;62.42
79037;BME280;68434;59.896;30.474;2023-05-01T05:18:25;101216.72;;;7.74;63.13
79037;BME280;68434;59.896;30.474;2023-05-01T05:20:54;101214.16;;;7.61;62.74
79037;BME280;68434;59.896;30.474;2023-05-01T05:26:28;101231.91;;;7.53;62.16
79037;BME280;68434;59.896;30.474;2023-05-01T05:29:00;101236.94;;;7.46;61.37
79037;BME280;68434;59.896;30.474;2023-05-01T05:31:29;101230.69;;;7.57;61.85
79037;BME280;68434;59.896;30.474;2023-05-01T05:33:58;101239.34;;;7.71;61.42
79037;BME280;68434;59.896;30.474;2023-05-01T05:36:25;101232.56;;;7.88;61.05
79037;BME280;68434;59.896;30.474;2023-05-01T05:38:54;101239.63;;;8.11;59.15
79037;BME280;68434;59.896;30.474;2023-05-01T05:41:21;101245.59;;;8.57;57.90
79037;BME280;68434;59.896;30.474;2023-05-01T05:44:06;101228.75;;;9.36;55.79
79037;BME280;68434;59.896;30.474;2023-05-01T05:49:28;101221.88;;;10.49;52.35
79037;BME280;68434;59.896;30.474;2023-05-01T05:51:56;101224.16;;;10.63;51.56
79037;BME280;68434;59.896;30.474;2023-05-01T05:54:24;101226.31;;;10.41;51.72
79037;BME280;68434;59.896;30.474;2023-05-01T05:56:51;101239.38;;;10.17;52.67
79037;BME280;68434;59.896;30.474;2023-05-01T05:59:19;101234.75;;;9.89;53.63
79037;BME280;68434;59.896;30.474;2023-05-01T06:02:07;101245.09;;;10.71;51.03
79037;BME280;68434;59.896;30.474;2023-05-01T06:04:35;101236.69;;;11.39;49.33
79037;BME280;68434;59.896;30.474;2023-05-01T06:07:03;101245.72;;;11.11;49.48
79037;BME280;68434;59.896;30.474;2023-05-01T06:09:31;101247.06;;;11.43;48.43
79037;BME280;68434;59.896;30.474;2023-05-01T06:12:00;101255.94;;;11.36;48.38
79037;BME280;68434;59.896;30.474;2023-05-01T06:14:30;101252.69;;;11.96;46.22
79037;BME280;68434;59.896;30.474;2023-05-01T06:16:58;101249.63;;;12.61;44.88
79037;BME280;68434;59.896;30.474;2023-05-01T06:19:27;101237.19;;;13.37;43.01
79037;BME280;68434;59.896;30.474;2023-05-01T06:22:04;101240.97;;;14.35;40.91
79037;BME280;68434;59.896;30.474;2023-05-01T06:24:37;101245.75;;;15.13;38.69
79037;BME280;68434;59.896;30.474;2023-05-01T06:27:07;101242.16;;;15.53;37.86
79037;BME280;68434;59.896;30.474;2023-05-01T06:29:34;101244.59;;;14.84;37.83
79037;BME280;68434;59.896;30.474;2023-05-01T06:32:03;101242.69;;;13.95;39.12
79037;BME280;68434;59.896;30.474;2023-05-01T06:34:33;101247.75;;;13.48;40.04
79037;BME280;68434;59.896;30.474;2023-05-01T06:37:00;101262.22;;;13.23;40.83
79037;BME280;68434;59.896;30.474;2023-05-01T06:39:30;101258.28;;;13.43;40.75
79037;BME280;68434;59.896;30.474;2023-05-01T06:41:58;101250.25;;;14.09;39.70
79037;BME280;68434;59.896;30.474;2023-05-01T06:47:18;101255.50;;;15.08;37.02
79037;BME280;68434;59.896;30.474;2023-05-01T06:54:06;101254.06;;;15.60;36.09
79037;BME280;68434;59.896;30.474;2023-05-01T06:56:34;101256.66;;;15.38;36.68
79037;BME280;68434;59.896;30.474;2023-05-01T06:59:02;101266.69;;;15.53;37.04
79037;BME280;68434;59.896;30.474;2023-05-01T07:01:31;101265.16;;;15.35;37.74
79037;BME280;68434;59.896;30.474;2023-05-01T07:03:58;101261.50;;;16.13;37.48
79037;BME280;68434;59.896;30.474;2023-05-01T07:06:26;101271.63;;;16.35;36.55
79037;BME280;68434;59.896;30.474;2023-05-01T07:08:54;101272.75;;;16.18;36.29
79037;BME280;68434;59.896;30.474;2023-05-01T07:11:23;101275.63;;;15.86;37.53
79037;BME280;68434;59.896;30.474;2023-05-01T07:13:52;101277.63;;;15.45;37.43
79037;BME280;68434;59.896;30.474;2023-05-01T07:16:38;101276.44;;;15.40;37.82
79037;BME280;68434;59.896;30.474;2023-05-01T07:19:06;101276.25;;;15.33;36.59
79037;BME280;68434;59.896;30.474;2023-05-01T07:21:34;101288.38;;;14.90;37.37
79037;BME280;68434;59.896;30.474;2023-05-01T07:24:02;101286.09;;;14.04;39.32
79037;BME280;68434;59.896;30.474;2023-05-01T07:26:31;101291.19;;;13.66;40.51
79037;BME280;68434;59.896;30.474;2023-05-01T07:28:58;101293.97;;;13.48;41.65
79037;BME280;68434;59.896;30.474;2023-05-01T07:31:26;101292.25;;;13.21;42.41
79037;BME280;68434;59.896;30.474;2023-05-01T07:33:54;101298.06;;;13.01;42.64
79037;BME280;68434;59.896;30.474;2023-05-01T07:36:21;101297.41;;;13.07;42.25
79037;BME280;68434;59.896;30.474;2023-05-01T07:38:49;101285.13;;;13.20;42.24
79037;BME280;68434;59.896;30.474;2023-05-01T07:41:17;101288.75;;;13.29;41.91
79037;BME280;68434;59.896;30.474;2023-05-01T07:43:46;101292.34;;;12.94;42.22
79037;BME280;68434;59.896;30.474;2023-05-01T07:46:14;101292.13;;;12.70;39.14
79037;BME280;68434;59.896;30.474;2023-05-01T07:48:42;101288.50;;;12.62;39.69
79037;BME280;68434;59.896;30.474;2023-05-01T07:51:09;101291.38;;;12.43;38.91
79037;BME280;68434;59.896;30.474;2023-05-01T07:53:52;101282.81;;;12.38;38.21
79037;BME280;68434;59.896;30.474;2023-05-01T07:56:20;101290.25;;;12.36;38.48
79037;BME280;68434;59.896;30.474;2023-05-01T07:58:49;101296.38;;;12.20;36.93
79037;BME280;68434;59.896;30.474;2023-05-01T08:01:17;101293.41;;;12.14;37.01
79037;BME280;68434;59.896;30.474;2023-05-01T08:03:44;101290.66;;;11.96;34.94
79037;BME280;68434;59.896;30.474;2023-05-01T08:06:12;101285.13;;;11.88;35.93
79037;BME280;68434;59.896;30.474;2023-05-01T08:08:39;101289.69;;;12.15;36.17
79037;BME280;68434;59.896;30.474;2023-05-01T08:11:08;101293.81;;;12.19;35.31
79037;BME280;68434;59.896;30.474;2023-05-01T08:17:00;101298.06;;;12.21;33.76
79037;BME280;68434;59.896;30.474;2023-05-01T08:19:28;101288.28;;;12.11;33.09
79037;BME280;68434;59.896;30.474;2023-05-01T08:21:56;101291.25;;;12.17;33.46
79037;BME280;68434;59.896;30.474;2023-05-01T08:24:42;101292.09;;;12.18;33.01
79037;BME280;68434;59.896;30.474;2023-05-01T08:27:09;101297.09;;;12.40;32.87
79037;BME280;68434;59.896;30.474;2023-05-01T08:29:37;101289.56;;;12.34;32.50
79037;BME280;68434;59.896;30.474;2023-05-01T08:32:06;101289.44;;;12.53;32.55
79037;BME280;68434;59.896;30.474;2023-05-01T08:34:34;101294.94;;;12.61;33.49
79037;BME280;68434;59.896;30.474;2023-05-01T08:37:02;101294.63;;;12.64;34.16
79037;BME280;68434;59.896;30.474;2023-05-01T08:39:30;101295.06;;;12.42;33.79
79037;BME280;68434;59.896;30.474;2023-05-01T08:41:58;101295.22;;;12.23;35.04
79037;BME280;68434;59.896;30.474;2023-05-01T08:44:27;101288.28;;;12.11;35.26
79037;BME280;68434;59.896;30.474;2023-05-01T08:47:05;101288.91;;;12.22;34.80
79037;BME280;68434;59.896;30.474;2023-05-01T08:49:36;101291.91;;;12.02;35.31
79037;BME280;68434;59.896;30.474;2023-05-01T08:52:07;101292.59;;;11.77;35.80
79037;BME280;68434;59.896;30.474;2023-05-01T08:54:37;101289.47;;;11.72;36.35
79037;BME280;68434;59.896;30.474;2023-05-01T08:57:08;101286.38;;;11.94;36.57
79037;BME280;68434;59.896;30.474;2023-05-01T08:59:38;101298.09;;;11.94;37.79
79037;BME280;68434;59.896;30.474;2023-05-01T09:02:08;101308.03;;;11.67;36.98
79037;BME280;68434;59.896;30.474;2023-05-01T09:04:38;101306.19;;;11.58;38.06
79037;BME280;68434;59.896;30.474;2023-05-01T09:07:10;101308.66;;;11.51;36.84
79037;BME280;68434;59.896;30.474;2023-05-01T09:09:38;101307.75;;;11.70;38.63
79037;BME280;68434;59.896;30.474;2023-05-01T09:12:13;101307.22;;;11.93;39.26
79037;BME280;68434;59.896;30.474;2023-05-01T09:14:45;101314.47;;;11.66;36.41
79037;BME280;68434;59.896;30.474;2023-05-01T09:17:31;101302.88;;;11.73;36.77
79037;BME280;68434;59.896;30.474;2023-05-01T09:20:00;101305.03;;;11.70;37.44
79037;BME280;68434;59.896;30.474;2023-05-01T09:22:30;101300.38;;;11.89;38.68
79037;BME280;68434;59.896;30.474;2023-05-01T09:24:58;101307.06;;;11.95;38.79
79037;BME280;68434;59.896;30.474;2023-05-01T09:27:26;101304.84;;;11.81;36.90
79037;BME280;68434;59.896;30.474;2023-05-01T09:29:54;101316.44;;;11.73;36.89
79037;BME280;68434;59.896;30.474;2023-05-01T09:32:23;101306.53;;;11.82;37.95
79037;BME280;68434;59.896;30.474;2023-05-01T09:34:54;101302.75;;;12.02;38.04
79037;BME280;68434;59.896;30.474;2023-05-01T09:37:28;101312.38;;;12.14;36.31
79037;BME280;68434;59.896;30.474;2023-05-01T09:40:06;101306.38;;;11.93;37.50
79037;BME280;68434;59.896;30.474;2023-05-01T09:42:36;101303.94;;;12.17;37.04
79037;BME280;68434;59.896;30.474;2023-05-01T09:45:05;101314.25;;;12.13;36.03
79037;BME280;68434;59.896;30.474;2023-05-01T09:47:33;101305.19;;;11.95;35.91
79037;BME280;68434;59.896;30.474;2023-05-01T09:50:01;101308.19;;;12.02;35.52
79037;BME280;68434;59.896;30.474;2023-05-01T09:52:31;101317.06;;;11.94;37.32
79037;BME280;68434;59.896;30.474;2023-05-01T09:55:12;101301.28;;;12.07;35.61
79037;BME280;68434;59.896;30.474;2023-05-01T09:57:40;101304.66;;;11.92;32.32
79037;BME280;68434;59.896;30.474;2023-05-01T10:00:10;101299.25;;;11.92;32.80
79037;BME280;68434;59.896;30.474;2023-05-01T10:02:39;101311.34;;;11.97;34.54
79037;BME280;68434;59.896;30.474;2023-05-01T10:05:08;101294.28;;;11.87;31.89
79037;BME280;68434;59.896;30.474;2023-05-01T10:07:37;101292.03;;;11.73;30.81
79037;BME280;68434;59.896;30.474;2023-05-01T10:10:15;101320.31;;;11.61;30.75
79037;BME280;68434;59.896;30.474;2023-05-01T10:12:43;101319.59;;;11.59;30.63
79037;BME280;68434;59.896;30.474;2023-05-01T10:15:11;101323.47;;;11.66;30.73
79037;BME280;68434;59.896;30.474;2023-05-01T10:17:40;101302.28;;;11.79;31.51
79037;BME280;68434;59.896;30.474;2023-05-01T10:20:09;101303.47;;;12.04;32.42
79037;BME280;68434;59.896;30.474;2023-05-01T10:22:40;101316.94;;;11.86;30.78
79037;BME280;68434;59.896;30.474;2023-05-01T10:25:09;101308.34;;;11.64;30.73
79037;BME280;68434;59.896;30.474;2023-05-01T10:27:38;101311.03;;;11.64;30.26
79037;BME280;68434;59.896;30.474;2023-05-01T10:30:08;101306.69;;;11.43;29.87
79037;BME280;68434;59.896;30.474;2023-05-01T10:32:54;101303.38;;;11.50;30.77
79037;BME280;68434;59.896;30.474;2023-05-01T10:35:26;101300.63;;;11.69;32.02
79037;BME280;68434;59.896;30.474;2023-05-01T10:38:01;101297.63;;;11.99;33.13
79037;BME280;68434;59.896;30.474;2023-05-01T10:40:46;101317.91;;;11.68;30.47
79037;BME280;68434;59.896;30.474;2023-05-01T10:46:26;101315.63;;;11.44;30.80
79037;BME280;68434;59.896;30.474;2023-05-01T10:48:58;101305.66;;;11.44;31.46
79037;BME280;68434;59.896;30.474;2023-05-01T10:51:59;101318.34;;;11.44;31.37
79037;BME280;68434;59.896;30.474;2023-05-01T10:54:30;101308.94;;;11.48;32.13
79037;BME280;68434;59.896;30.474;2023-05-01T10:57:01;101318.75;;;11.59;31.90
79037;BME280;68434;59.896;30.474;2023-05-01T11:02:35;101319.59;;;11.59;33.18
79037;BME280;68434;59.896;30.474;2023-05-01T11:05:03;101330.44;;;11.69;32.54
79037;BME280;68434;59.896;30.474;2023-05-01T11:07:31;101309.63;;;11.69;32.29
79037;BME280;68434;59.896;30.474;2023-05-01T11:10:01;101301.88;;;11.74;32.28
79037;BME280;68434;59.896;30.474;2023-05-01T11:12:54;101318.25;;;11.82;33.33
79037;BME280;68434;59.896;30.474;2023-05-01T11:15:29;101322.59;;;11.66;33.15
79037;BME280;68434;59.896;30.474;2023-05-01T11:17:58;101320.03;;;11.55;32.36
79037;BME280;68434;59.896;30.474;2023-05-01T11:20:46;101319.34;;;11.53;32.75
79037;BME280;68434;59.896;30.474;2023-05-01T11:23:18;101321.47;;;11.59;33.86
79037;BME280;68434;59.896;30.474;2023-05-01T11:25:48;101339.16;;;11.63;33.16
79037;BME280;68434;59.896;30.474;2023-05-01T11:28:20;101328.78;;;11.39;33.47
79037;BME280;68434;59.896;30.474;2023-05-01T11:30:50;101325.50;;;11.45;34.69
79037;BME280;68434;59.896;30.474;2023-05-01T11:33:36;101332.59;;;11.46;34.39
79037;BME280;68434;59.896;30.474;2023-05-01T11:36:04;101326.75;;;11.41;35.17
79037;BME280;68434;59.896;30.474;2023-05-01T11:38:32;101334.59;;;11.54;35.24
79037;BME280;68434;59.896;30.474;2023-05-01T11:41:02;101329.28;;;11.71;35.46
79037;BME280;68434;59.896;30.474;2023-05-01T11:43:30;101325.50;;;11.91;35.67
79037;BME280;68434;59.896;30.474;2023-05-01T11:45:58;101335.75;;;11.97;35.02
79037;BME280;68434;59.896;30.474;2023-05-01T11:48:29;101332.84;;;12.08;35.54
79037;BME280;68434;59.896;30.474;2023-05-01T11:50:57;101335.41;;;12.10;34.43
79037;BME280;68434;59.896;30.474;2023-05-01T11:53:25;101336.78;;;11.87;34.34
79037;BME280;68434;59.896;30.474;2023-05-01T11:55:52;101344.25;;;11.75;34.14
79037;BME280;68434;59.896;30.474;2023-05-01T11:58:32;101332.69;;;11.73;33.31
79037;BME280;68434;59.896;30.474;2023-05-01T12:01:01;101334.16;;;11.68;33.11
79037;BME280;68434;59.896;30.474;2023-05-01T12:03:39;101332.69;;;11.73;34.51
79037;BME280;68434;59.896;30.474;2023-05-01T12:06:08;101337.56;;;11.70;32.67
79037;BME280;68434;59.896;30.474;2023-05-01T12:08:36;101341.41;;;11.77;33.93
79037;BME280;68434;59.896;30.474;2023-05-01T12:11:08;101339.53;;;11.77;33.62
79037;BME280;68434;59.896;30.474;2023-05-01T12:13:38;101344.41;;;11.74;33.05
79037;BME280;68434;59.896;30.474;2023-05-01T12:16:07;101333.56;;;11.74;33.46
79037;BME280;68434;59.896;30.474;2023-05-01T12:18:35;101339.38;;;11.79;33.48
79037;BME280;68434;59.896;30.474;2023-05-01T12:21:21;101341.94;;;11.80;33.82
79037;BME280;68434;59.896;30.474;2023-05-01T12:23:50;101338.63;;;11.86;33.49
79037;BME280;68434;59.896;30.474;2023-05-01T12:26:20;101333.63;;;11.91;33.53
79037;BME280;68434;59.896;30.474;2023-05-01T12:28:58;101351.06;;;11.89;32.69
79037;BME280;68434;59.896;30.474;2023-05-01T12:31:26;101332.25;;;11.78;32.96
79037;BME280;68434;59.896;30.474;2023-05-01T12:33:54;101344.06;;;11.86;33.41
79037;BME280;68434;59.896;30.474;2023-05-01T12:36:24;101347.47;;;11.88;32.41
79037;BME280;68434;59.896;30.474;2023-05-01T12:38:57;101334.19;;;11.95;33.37
79037;BME280;68434;59.896;30.474;2023-05-01T12:41:36;101329.88;;;12.02;32.86
79037;BME280;68434;59.896;30.474;2023-05-01T12:44:19;101347.25;;;12.09;32.30
79037;BME280;68434;59.896;30.474;2023-05-01T12:46:53;101348.59;;;11.95;32.07
79037;BME280;68434;59.896;30.474;2023-05-01T12:49:22;101343.06;;;11.87;32.79
79037;BME280;68434;59.896;30.474;2023-05-01T12:51:52;101334.50;;;11.92;31.93
79037;BME280;68434;59.896;30.474;2023-05-01T12:54:21;101328.78;;;11.95;32.43
79037;BME280;68434;59.896;30.474;2023-05-01T12:56:49;101334.13;;;12.04;32.45
79037;BME280;68434;59.896;30.474;2023-05-01T12:59:26;101332.72;;;12.00;31.61
79037;BME280;68434;59.896;30.474;2023-05-01T13:01:58;101335.75;;;11.97;30.74
79037;BME280;68434;59.896;30.474;2023-05-01T13:04:27;101333.44;;;12.02;31.00
79037;BME280;68434;59.896;30.474;2023-05-01T13:06:54;101333.69;;;12.09;31.05
79037;BME280;68434;59.896;30.474;2023-05-01T13:09:24;101327.66;;;12.15;30.89
79037;BME280;68434;59.896;30.474;2023-05-01T13:11:57;101336.50;;;12.17;30.87
79037;BME280;68434;59.896;30.474;2023-05-01T13:14:28;101325.69;;;12.07;30.27
79037;BME280;68434;59.896;30.474;2023-05-01T13:16:57;101336.81;;;12.14;29.41
79037;BME280;68434;59.896;30.474;2023-05-01T13:19:26;101322.06;;;12.16;29.93
79037;BME280;68434;59.896;30.474;2023-05-01T13:21:56;101328.06;;;12.20;29.95
79037;BME280;68434;59.896;30.474;2023-05-01T13:24:35;101335.13;;;12.30;30.02
79037;BME280;68434;59.896;30.474;2023-05-01T13:27:13;101328.81;;;12.12;29.23